Terminal Aerodrome Forecast
Issued by NWS

Home | Current Version | Previous Version | Text Only | Print | Product List | Glossary Off
Versions: 1 2 3 4 5 6 7 8 9 10 11 12 13 14

000
FTUS45 KGGW 181130
TAFSDY
TAF
KSDY 181130Z 1812/1912 04016KT P6SM OVC005
     FM181500 04012KT P6SM VCSH OVC008
     FM181800 03012KT P6SM -SHRA OVC010
     FM182100 02012KT P6SM -SHRA OVC020
     FM190500 02007KT P6SM OVC050=

USA.gov is the U.S. government's official web portal to all federal, state and local government web resources and services.